Soeroeyfisk — LJQQ — position and weather

sailwx.info

Track history (hours):
 
Tides and Currents Weather Stations Pressure Air Temp Water Temp Dewpoint Dewpoint Depression Visibility Wind Speed Wind Dir Waves Ship Positions

Soeroeyfisk

Last reported at 2017-Nov-16 09:05 UTC. Time now 2017-Nov-24 14:54 UTC.
Position N 70°04' E 021°36'.
Warning: this ship's position is 8 days out of date.

Length 27 m.

Type: Fishing. MMSI: 259641000.

Date/timePositionNaut miles runAvg speedWind from/ knotsBaromVisibWave heightAir tempDewpointWater temp
2017-Nov-16 09:05N 70°04' E 021°36'0 5.5
2017-Nov-16 09:00N 70°04' E 021°37'2 4.1
2017-Nov-16 08:30N 70°04' E 021°31'3 6.9
2017-Nov-16 08:00N 70°04' E 021°21'0 0.6
2017-Nov-16 07:30N 70°04' E 021°20'1 1.2
2017-Nov-16 07:00N 70°04' E 021°18'0 0.2
2017-Nov-16 06:29N 70°04' E 021°19'0 0.3
2017-Nov-16 06:00N 70°04' E 021°19'0 0.2
2017-Nov-16 05:31N 70°04' E 021°18'0 0.5
2017-Nov-16 05:00N 70°04' E 021°18'0 0.9
2017-Nov-16 04:30N 70°04' E 021°18'0 0.4
2017-Nov-16 04:00N 70°04' E 021°17'0 0.7
2017-Nov-16 03:30N 70°04' E 021°17'0 0.1
2017-Nov-16 03:00N 70°04' E 021°17'0 0.2
2017-Nov-16 02:30N 70°04' E 021°18'0 0.3
2017-Nov-16 02:00N 70°04' E 021°18'0 0.9
2017-Nov-16 01:30N 70°05' E 021°17'0 0.4
2017-Nov-16 01:00N 70°04' E 021°18'2 3.4
2017-Nov-16 00:30N 70°05' E 021°13'2 3.1
2017-Nov-16 00:00N 70°05' E 021°09'1 2.0
2017-Nov-15 23:30N 70°05' E 021°11'1 2.8
2017-Nov-15 23:00N 70°05' E 021°15'1 2.7
2017-Nov-15 22:30N 70°04' E 021°18'2 4.1
2017-Nov-15 22:00N 70°05' E 021°23'2 4.2
2017-Nov-15 21:30N 70°07' E 021°24'2 4.2
2017-Nov-15 21:00N 70°08' E 021°21'2 3.6
2017-Nov-15 20:30N 70°08' E 021°16'2 4.2
2017-Nov-15 20:00N 70°06' E 021°14'2 3.9
2017-Nov-15 19:30N 70°05' E 021°09'1 2.8
2017-Nov-15 19:00N 70°05' E 021°05'1 1.8
2017-Nov-15 18:30N 70°04' E 021°07'0 0.3
2017-Nov-15 18:00N 70°04' E 021°08'0 0.2
2017-Nov-15 17:30N 70°04' E 021°08'0 0.3
2017-Nov-15 17:00N 70°04' E 021°08'0 0.3
2017-Nov-15 16:30N 70°04' E 021°08'0 0.2
2017-Nov-15 16:00N 70°04' E 021°08'0 0.2
2017-Nov-15 15:30N 70°05' E 021°08'0 0.1
2017-Nov-15 15:00N 70°04' E 021°08'0 0.3
2017-Nov-15 14:30N 70°05' E 021°07'0 0.2
2017-Nov-15 14:00N 70°05' E 021°07'0 0.9
2017-Nov-15 13:30N 70°05' E 021°08'0 0.7
2017-Nov-15 13:00N 70°05' E 021°07'0 0.8
2017-Nov-15 12:30N 70°05' E 021°07'0 0.2
2017-Nov-15 12:00N 70°05' E 021°07'0 0.2
2017-Nov-15 11:30N 70°05' E 021°07'0 0.1
2017-Nov-15 11:00N 70°05' E 021°07'0 0.3
2017-Nov-15 10:30N 70°05' E 021°06'0 0.5
2017-Nov-15 10:00N 70°05' E 021°06'0 0.4
2017-Nov-15 09:31N 70°05' E 021°06'0 0.3
2017-Nov-15 08:59N 70°05' E 021°07'0 0.9
2017-Nov-15 08:30N 70°05' E 021°08'1 2.9
2017-Nov-15 08:00N 70°06' E 021°11'2 4.2
2017-Nov-15 07:30N 70°04' E 021°06'4 7.2
2017-Nov-15 07:00N 70°04' E 020°56'4 8.6
2017-Nov-15 06:30N 70°02' E 020°44'4 8.6
2017-Nov-15 06:00N 70°01' E 020°32'4 8.6
2017-Nov-15 05:29N 69°60' E 020°20'4 8.6
2017-Nov-15 05:00N 69°58' E 020°09'4 8.7
2017-Nov-15 04:30N 69°55' E 019°60'4 8.8
2017-Nov-15 04:01N 69°52' E 019°50'5 8.7
2017-Nov-15 03:29N 69°50' E 019°38'4 8.8
2017-Nov-15 03:00N 69°48' E 019°27'5 9.0
2017-Nov-15 02:30N 69°47' E 019°14'5 8.9
2017-Nov-15 02:00N 69°44' E 019°05'4 8.8
2017-Nov-15 01:30N 69°40' E 018°60'4 8.4
2017-Nov-15 00:59N 69°36' E 018°53'4 7.7
2017-Nov-15 00:30N 69°34' E 018°46'3 6.6
2017-Nov-15 00:00N 69°33' E 018°37'4 8.5
2017-Nov-14 23:30N 69°31' E 018°25'4 8.6
2017-Nov-14 22:59N 69°29' E 018°14'4 7.6
2017-Nov-14 22:30N 69°26' E 018°07'4 8.7
2017-Nov-14 22:00N 69°22' E 018°06'4 8.5
2017-Nov-14 21:30N 69°19' E 017°58'4 8.5
2017-Nov-14 21:00N 69°14' E 017°58'0 0.6
2017-Nov-14 20:30N 69°14' E 017°59'0 0.0
2017-Nov-14 20:00N 69°14' E 017°59'0 0.0
2017-Nov-14 19:30N 69°14' E 017°59'0 0.0
2017-Nov-14 19:00N 69°14' E 017°59'2 4.9
2017-Nov-14 18:30N 69°17' E 017°58'4 8.0
2017-Nov-14 18:00N 69°20' E 018°03'4 8.3
2017-Nov-14 17:30N 69°24' E 018°07'4 8.2
2017-Nov-14 17:00N 69°28' E 018°09'4 8.5
2017-Nov-14 16:30N 69°31' E 018°19'4 8.4
2017-Nov-14 16:00N 69°32' E 018°31'4 8.5
2017-Nov-14 15:30N 69°33' E 018°42'4 8.5
2017-Nov-14 15:00N 69°36' E 018°52'4 8.1
2017-Nov-14 14:30N 69°39' E 018°59'1 1.1
2017-Nov-14 14:00N 69°40' E 018°58'0 0.0
2017-Nov-14 13:30N 69°40' E 018°58'0 0.0
2017-Nov-14 13:00N 69°40' E 018°58'2 4.4
2017-Nov-14 12:31N 69°41' E 019°02'4 8.3
2017-Nov-14 12:00N 69°45' E 019°07'4 8.2
2017-Nov-14 11:30N 69°47' E 019°18'4 8.4
2017-Nov-14 11:00N 69°49' E 019°29'4 8.5
2017-Nov-14 10:30N 69°51' E 019°40'4 8.2
2017-Nov-14 09:59N 69°53' E 019°50'4 8.3
2017-Nov-14 09:30N 69°55' E 019°60'4 8.4
2017-Nov-14 09:00N 69°58' E 020°10'4 7.9
2017-Nov-14 08:30N 69°60' E 020°20'4 8.3
2017-Nov-14 08:00N 70°01' E 020°31'4 8.3
2017-Nov-14 07:30N 70°02' E 020°43'4 8.2
2017-Nov-14 07:00N 70°04' E 020°54'3 5.2
2017-Nov-14 06:29N 70°02' E 021°00'0 0.8
2017-Nov-14 06:00N 70°02' E 020°59'0 0.0
2017-Nov-14 05:30N 70°02' E 020°59'0 0.0
2017-Nov-14 05:00N 70°02' E 020°59'0 0.0
2017-Nov-14 04:30N 70°02' E 020°59'0 0.0
2017-Nov-14 04:00N 70°02' E 020°59'0 0.0
2017-Nov-14 03:30N 70°02' E 020°59'2 3.5
2017-Nov-14 03:00N 70°04' E 020°58'2 4.8
2017-Nov-14 02:29N 70°03' E 020°51'2 4.0
2017-Nov-14 02:00N 70°04' E 020°56'4 8.9
2017-Nov-14 01:30N 70°08' E 021°01'4 8.6
2017-Nov-14 01:00N 70°12' E 021°06'4 8.3
2017-Nov-14 00:30N 70°15' E 021°14'4 8.8
2017-Nov-14 00:00N 70°18' E 021°24'4 8.7
2017-Nov-13 23:30N 70°21' E 021°33'4 8.4
2017-Nov-13 23:00N 70°24' E 021°42'4 8.3
2017-Nov-13 22:30N 70°25' E 021°54'4 8.5
2017-Nov-13 22:00N 70°26' E 022°06'108 5.2
2017-Nov-13 01:18N 70°57' E 027°20'0 0.0
2017-Nov-13 00:32N 70°57' E 027°20'0 0.0
2017-Nov-12 21:45N 70°57' E 027°20'0 0.0
2017-Nov-12 20:24N 70°57' E 027°20'0 0.0
2017-Nov-12 19:57N 70°57' E 027°20'0 0.0
2017-Nov-12 19:16N 70°57' E 027°20'0 0.0
2017-Nov-12 18:26N 70°57' E 027°20'0 0.0
2017-Nov-12 17:49N 70°57' E 027°20'2 5.7
2017-Nov-12 17:30N 70°58' E 027°16'4 8.4
2017-Nov-12 17:00N 71°02' E 027°12'5 9.2
2017-Nov-12 16:30N 71°06' E 027°21'4 8.6
2017-Nov-12 16:00N 71°09' E 027°31'4 7.9
2017-Nov-12 15:30N 71°12' E 027°38'4 7.1
2017-Nov-12 15:00N 71°11' E 027°49'1 2.9
2017-Nov-12 14:30N 71°11' E 027°53'0 0.5
2017-Nov-12 14:00N 71°11' E 027°53'1 1.9
2017-Nov-12 13:30N 71°11' E 027°50'1 2.7
2017-Nov-12 13:00N 71°11' E 027°46'4 7.7
2017-Nov-12 12:30N 71°11' E 027°57'4 8.3
2017-Nov-12 12:00N 71°10' E 028°10'4 8.3
2017-Nov-12 11:30N 71°08' E 028°22'1 1.9
2017-Nov-12 11:00N 71°07' E 028°24'4 8.7
2017-Nov-12 10:30N 71°10' E 028°13'5 9.0
2017-Nov-12 10:00N 71°11' E 027°59'5 9.6
2017-Nov-12 09:30N 71°11' E 027°44'510.6
2017-Nov-12 09:00N 71°09' E 027°29'2 4.2
2017-Nov-12 08:30N 71°08' E 027°23'1 1.1
2017-Nov-12 08:01N 71°08' E 027°22'1 2.0
2017-Nov-12 07:30N 71°07' E 027°20'1 2.0
2017-Nov-12 07:01N 71°06' E 027°17'2 4.4
2017-Nov-12 06:30N 71°08' E 027°23'3 5.5
2017-Nov-12 06:00N 71°10' E 027°29'3 5.4
2017-Nov-12 05:30N 71°12' E 027°35'3 5.7
2017-Nov-12 05:00N 71°11' E 027°44'3 6.2
2017-Nov-12 04:30N 71°08' E 027°47'4 8.2
2017-Nov-12 04:00N 71°04' E 027°50'1 0.1
2017-Nov-11 14:14N 71°03' E 027°50'2 8.7
2017-Nov-11 14:01N 71°05' E 027°50'4 8.8
2017-Nov-11 13:30N 71°10' E 027°48'4 7.4
2017-Nov-11 13:00N 71°13' E 027°41'1 2.0
2017-Nov-11 12:30N 71°12' E 027°38'1 1.1
2017-Nov-11 12:00N 71°12' E 027°37'1 2.0
2017-Nov-11 11:30N 71°12' E 027°34'0 0.3
2017-Nov-11 11:00N 71°12' E 027°34'0 1.0
2017-Nov-11 10:30N 71°12' E 027°36'0 0.4
2017-Nov-11 10:00N 71°12' E 027°36'0 0.9
2017-Nov-11 09:30N 71°12' E 027°36'0 0.3
2017-Nov-11 09:00N 71°12' E 027°36'1 1.9
2017-Nov-11 08:30N 71°12' E 027°39'1 2.0
2017-Nov-11 08:00N 71°12' E 027°36'0 0.5
2017-Nov-11 07:30N 71°12' E 027°35'2 3.7
2017-Nov-11 07:00N 71°12' E 027°30'3 5.2
2017-Nov-11 06:30N 71°12' E 027°38'1 1.4
2017-Nov-11 06:00N 71°11' E 027°36'0 1.0
2017-Nov-11 05:31N 71°11' E 027°34'1 2.2
2017-Nov-11 05:00N 71°11' E 027°31'0 0.5
2017-Nov-11 04:30N 71°11' E 027°30'4 8.6
2017-Nov-11 04:01N 71°08' E 027°22'4 8.3
2017-Nov-11 03:31N 71°04' E 027°15'4 8.0
2017-Nov-11 03:00N 71°01' E 027°11'4 7.5
2017-Nov-11 02:30N 70°58' E 027°18'1 0.1
2017-Nov-10 16:34N 70°57' E 027°20'0 0.0
2017-Nov-10 13:41N 70°57' E 027°20'1 6.0
2017-Nov-10 13:30N 70°58' E 027°18'4 8.2
2017-Nov-10 13:00N 71°01' E 027°11'4 7.1
2017-Nov-10 12:30N 71°04' E 027°15'1 2.2
2017-Nov-10 12:00N 71°04' E 027°12'3 6.4
2017-Nov-10 11:31N 71°07' E 027°16'0 1.0
2017-Nov-10 11:00N 71°07' E 027°16'4 7.1
2017-Nov-10 10:30N 71°09' E 027°25'3 5.9
2017-Nov-10 09:59N 71°11' E 027°32'3 6.9
2017-Nov-10 09:30N 71°12' E 027°42'1 1.3
2017-Nov-10 09:00N 71°12' E 027°40'1 1.1
2017-Nov-10 08:29N 71°12' E 027°39'1 2.7
2017-Nov-10 08:00N 71°11' E 027°35'0 0.6
2017-Nov-10 07:30N 71°11' E 027°34'2 3.7
2017-Nov-10 06:59N 71°11' E 027°40'3 6.5
2017-Nov-10 06:30N 71°11' E 027°50'1 1.8
2017-Nov-10 06:00N 71°12' E 027°51'0 1.0
2017-Nov-10 05:30N 71°12' E 027°51'1 1.3
2017-Nov-10 05:00N 71°12' E 027°49'1 1.7
2017-Nov-10 04:30N 71°12' E 027°46'0 0.7
2017-Nov-10 04:00N 71°12' E 027°47'1 1.9
2017-Nov-10 03:30N 71°12' E 027°44'1 1.8
2017-Nov-10 03:00N 71°11' E 027°46'0 0.8
2017-Nov-10 02:30N 71°11' E 027°45'3 5.3
2017-Nov-10 02:00N 71°14' E 027°42'1 2.9
2017-Nov-10 01:30N 71°15' E 027°41'0 0.9
2017-Nov-10 01:00N 71°15' E 027°42'0 0.9
2017-Nov-10 00:30N 71°14' E 027°43'0 0.8
2017-Nov-10 00:00N 71°14' E 027°43'0 0.9
2017-Nov-09 23:30N 71°14' E 027°44'0 1.0
2017-Nov-09 23:00N 71°13' E 027°45'0 0.8
2017-Nov-09 22:30N 71°13' E 027°46'0 0.8
2017-Nov-09 22:00N 71°13' E 027°47'0 0.7
2017-Nov-09 21:30N 71°13' E 027°48'0 0.7
2017-Nov-09 21:00N 71°12' E 027°48'0 0.6
2017-Nov-09 20:30N 71°12' E 027°49'0 0.4
2017-Nov-09 20:00N 71°12' E 027°49'1 1.6
2017-Nov-09 19:30N 71°12' E 027°46'1 2.1
2017-Nov-09 19:00N 71°12' E 027°43'1 1.6
2017-Nov-09 18:30N 71°12' E 027°41'2 3.9
2017-Nov-09 18:00N 71°11' E 027°46'1 2.0
2017-Nov-09 17:30N 71°12' E 027°46'3 5.9
2017-Nov-09 17:00N 71°11' E 027°55'2 4.7
2017-Nov-09 16:30N 71°12' E 028°01'3 6.3
2017-Nov-09 16:00N 71°10' E 028°07'3 6.3
2017-Nov-09 15:30N 71°09' E 028°16'3 6.0
2017-Nov-09 15:00N 71°07' E 028°24'3 6.2
2017-Nov-09 14:29N 71°06' E 028°32'1 1.8
2017-Nov-09 14:00N 71°05' E 028°35'0 0.6
2017-Nov-09 13:30N 71°05' E 028°35'1 1.2
2017-Nov-09 13:01N 71°05' E 028°33'1 1.5
2017-Nov-09 12:30N 71°06' E 028°32'1 1.6
2017-Nov-09 12:00N 71°06' E 028°30'1 1.1
2017-Nov-09 11:29N 71°07' E 028°30'4 7.6
2017-Nov-09 11:00N 71°08' E 028°19'3 6.8
2017-Nov-09 10:30N 71°10' E 028°09'4 8.0
2017-Nov-09 10:00N 71°10' E 027°57'4 8.2
2017-Nov-09 09:30N 71°11' E 027°44'4 7.4
2017-Nov-09 09:00N 71°12' E 027°33'4 8.2
2017-Nov-09 08:30N 71°09' E 027°22'4 7.9
2017-Nov-09 08:00N 71°06' E 027°13'1 1.9
2017-Nov-09 07:30N 71°06' E 027°16'3 5.5
2017-Nov-09 07:00N 71°08' E 027°23'0 0.6
2017-Nov-09 06:30N 71°08' E 027°22'1 1.7
2017-Nov-09 06:00N 71°07' E 027°20'1 2.1
2017-Nov-09 05:30N 71°07' E 027°17'1 1.6
2017-Nov-09 05:00N 71°06' E 027°16'3 6.4
2017-Nov-09 04:30N 71°03' E 027°13'3 5.8
2017-Nov-09 04:00N 70°60' E 027°12'3 6.4
2017-Nov-09 03:29N 70°57' E 027°18'1 0.1
2017-Nov-08 16:41N 70°57' E 027°20'0 0.0
2017-Nov-08 14:54N 70°57' E 027°20'3 6.8
2017-Nov-08 14:30N 70°59' E 027°15'5 7.1
2017-Nov-08 13:48N 71°04' E 027°11'2 6.5
2017-Nov-08 13:30N 71°05' E 027°15'1 0.7
2017-Nov-08 12:37N 71°06' E 027°16'1 6.4
2017-Nov-08 12:29N 71°06' E 027°18'0 0.3
2017-Nov-08 11:49N 71°06' E 027°19'4 5.9
2017-Nov-08 11:08N 71°03' E 027°11'0 0.5
2017-Nov-08 10:26N 71°03' E 027°10'3 2.0
2017-Nov-08 09:05N 71°05' E 027°14'0 2.8
2017-Nov-08 09:00N 71°05' E 027°13'1 1.4
2017-Nov-08 08:30N 71°05' E 027°13'1 3.0
2017-Nov-08 08:00N 71°06' E 027°16'1 1.1
2017-Nov-08 07:30N 71°05' E 027°15'4 7.3
2017-Nov-08 07:00N 71°08' E 027°22'0 0.2
2017-Nov-08 06:30N 71°08' E 027°22'0 0.6
2017-Nov-08 06:00N 71°08' E 027°21'1 2.4
2017-Nov-08 05:30N 71°07' E 027°19'0 0.5
2017-Nov-08 05:00N 71°07' E 027°18'3 5.3
2017-Nov-08 04:30N 71°04' E 027°13'4 7.8
2017-Nov-08 03:59N 71°01' E 027°11'4 7.9
2017-Nov-08 03:31N 70°58' E 027°18'1 1.3
2017-Nov-08 02:45N 70°57' E 027°20'0 0.0
2017-Nov-08 02:25N 70°57' E 027°20'0 0.0
2017-Nov-07 19:30N 70°57' E 027°20'0 0.0
2017-Nov-07 18:49N 70°57' E 027°20'0 0.0
2017-Nov-07 18:28N 70°57' E 027°20'0 0.0
2017-Nov-07 17:49N 70°57' E 027°20'0 0.0
2017-Nov-07 17:08N 70°57' E 027°20'0 0.0
2017-Nov-07 16:53N 70°57' E 027°20'0 0.0
2017-Nov-07 16:24N 70°57' E 027°20'0 0.0
2017-Nov-07 15:33N 70°57' E 027°20'0 0.0
2017-Nov-07 15:13N 70°57' E 027°20'0 0.0
2017-Nov-07 14:28N 70°57' E 027°20'0 0.0
2017-Nov-07 13:02N 70°57' E 027°20'0 0.0
2017-Nov-07 12:55N 70°57' E 027°20'0 0.0
2017-Nov-07 12:23N 70°57' E 027°20'0 0.0
2017-Nov-07 11:55N 70°57' E 027°20'0 0.0
2017-Nov-07 11:29N 70°57' E 027°20'0 0.0
2017-Nov-07 10:49N 70°57' E 027°20'0 0.0
2017-Nov-07 09:49N 70°57' E 027°20'  
Track history (hours):
 
Tides and Currents Weather Stations Pressure Air Temp Water Temp Dewpoint Dewpoint Depression Visibility Wind Speed Wind Dir Waves Ship Positions

Soeroeyfisk

Last reported at 2017-Nov-16 09:05 UTC. Time now 2017-Nov-24 14:54 UTC.
Position N 70°04' E 021°36'.
Warning: this ship's position is 8 days out of date.

Length 27 m.

Type: Fishing. MMSI: 259641000.

Date/timePositionNaut miles runAvg speedWind from/ knotsBaromVisibWave heightAir tempDewpointWater temp
2017-Nov-16 09:05N 70°04' E 021°36'0 5.5
2017-Nov-16 09:00N 70°04' E 021°37'2 4.1
2017-Nov-16 08:30N 70°04' E 021°31'3 6.9
2017-Nov-16 08:00N 70°04' E 021°21'0 0.6
2017-Nov-16 07:30N 70°04' E 021°20'1 1.2
2017-Nov-16 07:00N 70°04' E 021°18'0 0.2
2017-Nov-16 06:29N 70°04' E 021°19'0 0.3
2017-Nov-16 06:00N 70°04' E 021°19'0 0.2
2017-Nov-16 05:31N 70°04' E 021°18'0 0.5
2017-Nov-16 05:00N 70°04' E 021°18'0 0.9
2017-Nov-16 04:30N 70°04' E 021°18'0 0.4
2017-Nov-16 04:00N 70°04' E 021°17'0 0.7
2017-Nov-16 03:30N 70°04' E 021°17'0 0.1
2017-Nov-16 03:00N 70°04' E 021°17'0 0.2
2017-Nov-16 02:30N 70°04' E 021°18'0 0.3
2017-Nov-16 02:00N 70°04' E 021°18'0 0.9
2017-Nov-16 01:30N 70°05' E 021°17'0 0.4
2017-Nov-16 01:00N 70°04' E 021°18'2 3.4
2017-Nov-16 00:30N 70°05' E 021°13'2 3.1
2017-Nov-16 00:00N 70°05' E 021°09'1 2.0
2017-Nov-15 23:30N 70°05' E 021°11'1 2.8
2017-Nov-15 23:00N 70°05' E 021°15'1 2.7
2017-Nov-15 22:30N 70°04' E 021°18'2 4.1
2017-Nov-15 22:00N 70°05' E 021°23'2 4.2
2017-Nov-15 21:30N 70°07' E 021°24'2 4.2
2017-Nov-15 21:00N 70°08' E 021°21'2 3.6
2017-Nov-15 20:30N 70°08' E 021°16'2 4.2
2017-Nov-15 20:00N 70°06' E 021°14'2 3.9
2017-Nov-15 19:30N 70°05' E 021°09'1 2.8
2017-Nov-15 19:00N 70°05' E 021°05'1 1.8
2017-Nov-15 18:30N 70°04' E 021°07'0 0.3
2017-Nov-15 18:00N 70°04' E 021°08'0 0.2
2017-Nov-15 17:30N 70°04' E 021°08'0 0.3
2017-Nov-15 17:00N 70°04' E 021°08'0 0.3
2017-Nov-15 16:30N 70°04' E 021°08'0 0.2
2017-Nov-15 16:00N 70°04' E 021°08'0 0.2
2017-Nov-15 15:30N 70°05' E 021°08'0 0.1
2017-Nov-15 15:00N 70°04' E 021°08'0 0.3
2017-Nov-15 14:30N 70°05' E 021°07'0 0.2
2017-Nov-15 14:00N 70°05' E 021°07'0 0.9
2017-Nov-15 13:30N 70°05' E 021°08'0 0.7
2017-Nov-15 13:00N 70°05' E 021°07'0 0.8
2017-Nov-15 12:30N 70°05' E 021°07'0 0.2
2017-Nov-15 12:00N 70°05' E 021°07'0 0.2
2017-Nov-15 11:30N 70°05' E 021°07'0 0.1
2017-Nov-15 11:00N 70°05' E 021°07'0 0.3
2017-Nov-15 10:30N 70°05' E 021°06'0 0.5
2017-Nov-15 10:00N 70°05' E 021°06'0 0.4
2017-Nov-15 09:31N 70°05' E 021°06'0 0.3
2017-Nov-15 08:59N 70°05' E 021°07'0 0.9
2017-Nov-15 08:30N 70°05' E 021°08'1 2.9
2017-Nov-15 08:00N 70°06' E 021°11'2 4.2
2017-Nov-15 07:30N 70°04' E 021°06'4 7.2
2017-Nov-15 07:00N 70°04' E 020°56'4 8.6
2017-Nov-15 06:30N 70°02' E 020°44'4 8.6
2017-Nov-15 06:00N 70°01' E 020°32'4 8.6
2017-Nov-15 05:29N 69°60' E 020°20'4 8.6
2017-Nov-15 05:00N 69°58' E 020°09'4 8.7
2017-Nov-15 04:30N 69°55' E 019°60'4 8.8
2017-Nov-15 04:01N 69°52' E 019°50'5 8.7
2017-Nov-15 03:29N 69°50' E 019°38'4 8.8
2017-Nov-15 03:00N 69°48' E 019°27'5 9.0
2017-Nov-15 02:30N 69°47' E 019°14'5 8.9
2017-Nov-15 02:00N 69°44' E 019°05'4 8.8
2017-Nov-15 01:30N 69°40' E 018°60'4 8.4
2017-Nov-15 00:59N 69°36' E 018°53'4 7.7
2017-Nov-15 00:30N 69°34' E 018°46'3 6.6
2017-Nov-15 00:00N 69°33' E 018°37'4 8.5
2017-Nov-14 23:30N 69°31' E 018°25'4 8.6
2017-Nov-14 22:59N 69°29' E 018°14'4 7.6
2017-Nov-14 22:30N 69°26' E 018°07'4 8.7
2017-Nov-14 22:00N 69°22' E 018°06'4 8.5
2017-Nov-14 21:30N 69°19' E 017°58'4 8.5
2017-Nov-14 21:00N 69°14' E 017°58'0 0.6
2017-Nov-14 20:30N 69°14' E 017°59'0 0.0
2017-Nov-14 20:00N 69°14' E 017°59'0 0.0
2017-Nov-14 19:30N 69°14' E 017°59'0 0.0
2017-Nov-14 19:00N 69°14' E 017°59'2 4.9
2017-Nov-14 18:30N 69°17' E 017°58'4 8.0
2017-Nov-14 18:00N 69°20' E 018°03'4 8.3
2017-Nov-14 17:30N 69°24' E 018°07'4 8.2
2017-Nov-14 17:00N 69°28' E 018°09'4 8.5
2017-Nov-14 16:30N 69°31' E 018°19'4 8.4
2017-Nov-14 16:00N 69°32' E 018°31'4 8.5
2017-Nov-14 15:30N 69°33' E 018°42'4 8.5
2017-Nov-14 15:00N 69°36' E 018°52'4 8.1
2017-Nov-14 14:30N 69°39' E 018°59'1 1.1
2017-Nov-14 14:00N 69°40' E 018°58'0 0.0
2017-Nov-14 13:30N 69°40' E 018°58'0 0.0
2017-Nov-14 13:00N 69°40' E 018°58'2 4.4
2017-Nov-14 12:31N 69°41' E 019°02'4 8.3
2017-Nov-14 12:00N 69°45' E 019°07'4 8.2
2017-Nov-14 11:30N 69°47' E 019°18'4 8.4
2017-Nov-14 11:00N 69°49' E 019°29'4 8.5
2017-Nov-14 10:30N 69°51' E 019°40'4 8.2
2017-Nov-14 09:59N 69°53' E 019°50'4 8.3
2017-Nov-14 09:30N 69°55' E 019°60'4 8.4
2017-Nov-14 09:00N 69°58' E 020°10'4 7.9
2017-Nov-14 08:30N 69°60' E 020°20'4 8.3
2017-Nov-14 08:00N 70°01' E 020°31'4 8.3
2017-Nov-14 07:30N 70°02' E 020°43'4 8.2
2017-Nov-14 07:00N 70°04' E 020°54'3 5.2
2017-Nov-14 06:29N 70°02' E 021°00'0 0.8
2017-Nov-14 06:00N 70°02' E 020°59'0 0.0
2017-Nov-14 05:30N 70°02' E 020°59'0 0.0
2017-Nov-14 05:00N 70°02' E 020°59'0 0.0
2017-Nov-14 04:30N 70°02' E 020°59'0 0.0
2017-Nov-14 04:00N 70°02' E 020°59'0 0.0
2017-Nov-14 03:30N 70°02' E 020°59'2 3.5
2017-Nov-14 03:00N 70°04' E 020°58'2 4.8
2017-Nov-14 02:29N 70°03' E 020°51'2 4.0
2017-Nov-14 02:00N 70°04' E 020°56'4 8.9
2017-Nov-14 01:30N 70°08' E 021°01'4 8.6
2017-Nov-14 01:00N 70°12' E 021°06'4 8.3
2017-Nov-14 00:30N 70°15' E 021°14'4 8.8
2017-Nov-14 00:00N 70°18' E 021°24'4 8.7
2017-Nov-13 23:30N 70°21' E 021°33'4 8.4
2017-Nov-13 23:00N 70°24' E 021°42'4 8.3
2017-Nov-13 22:30N 70°25' E 021°54'4 8.5
2017-Nov-13 22:00N 70°26' E 022°06'108 5.2
2017-Nov-13 01:18N 70°57' E 027°20'0 0.0
2017-Nov-13 00:32N 70°57' E 027°20'0 0.0
2017-Nov-12 21:45N 70°57' E 027°20'0 0.0
2017-Nov-12 20:24N 70°57' E 027°20'0 0.0
2017-Nov-12 19:57N 70°57' E 027°20'0 0.0
2017-Nov-12 19:16N 70°57' E 027°20'0 0.0
2017-Nov-12 18:26N 70°57' E 027°20'0 0.0
2017-Nov-12 17:49N 70°57' E 027°20'2 5.7
2017-Nov-12 17:30N 70°58' E 027°16'4 8.4
2017-Nov-12 17:00N 71°02' E 027°12'5 9.2
2017-Nov-12 16:30N 71°06' E 027°21'4 8.6
2017-Nov-12 16:00N 71°09' E 027°31'4 7.9
2017-Nov-12 15:30N 71°12' E 027°38'4 7.1
2017-Nov-12 15:00N 71°11' E 027°49'1 2.9
2017-Nov-12 14:30N 71°11' E 027°53'0 0.5
2017-Nov-12 14:00N 71°11' E 027°53'1 1.9
2017-Nov-12 13:30N 71°11' E 027°50'1 2.7
2017-Nov-12 13:00N 71°11' E 027°46'4 7.7
2017-Nov-12 12:30N 71°11' E 027°57'4 8.3
2017-Nov-12 12:00N 71°10' E 028°10'4 8.3
2017-Nov-12 11:30N 71°08' E 028°22'1 1.9
2017-Nov-12 11:00N 71°07' E 028°24'4 8.7
2017-Nov-12 10:30N 71°10' E 028°13'5 9.0
2017-Nov-12 10:00N 71°11' E 027°59'5 9.6
2017-Nov-12 09:30N 71°11' E 027°44'510.6
2017-Nov-12 09:00N 71°09' E 027°29'2 4.2
2017-Nov-12 08:30N 71°08' E 027°23'1 1.1
2017-Nov-12 08:01N 71°08' E 027°22'1 2.0
2017-Nov-12 07:30N 71°07' E 027°20'1 2.0
2017-Nov-12 07:01N 71°06' E 027°17'2 4.4
2017-Nov-12 06:30N 71°08' E 027°23'3 5.5
2017-Nov-12 06:00N 71°10' E 027°29'3 5.4
2017-Nov-12 05:30N 71°12' E 027°35'3 5.7
2017-Nov-12 05:00N 71°11' E 027°44'3 6.2
2017-Nov-12 04:30N 71°08' E 027°47'4 8.2
2017-Nov-12 04:00N 71°04' E 027°50'1 0.1
2017-Nov-11 14:14N 71°03' E 027°50'2 8.7
2017-Nov-11 14:01N 71°05' E 027°50'4 8.8
2017-Nov-11 13:30N 71°10' E 027°48'4 7.4
2017-Nov-11 13:00N 71°13' E 027°41'1 2.0
2017-Nov-11 12:30N 71°12' E 027°38'1 1.1
2017-Nov-11 12:00N 71°12' E 027°37'1 2.0
2017-Nov-11 11:30N 71°12' E 027°34'0 0.3
2017-Nov-11 11:00N 71°12' E 027°34'0 1.0
2017-Nov-11 10:30N 71°12' E 027°36'0 0.4
2017-Nov-11 10:00N 71°12' E 027°36'0 0.9
2017-Nov-11 09:30N 71°12' E 027°36'0 0.3
2017-Nov-11 09:00N 71°12' E 027°36'1 1.9
2017-Nov-11 08:30N 71°12' E 027°39'1 2.0
2017-Nov-11 08:00N 71°12' E 027°36'0 0.5
2017-Nov-11 07:30N 71°12' E 027°35'2 3.7
2017-Nov-11 07:00N 71°12' E 027°30'3 5.2
2017-Nov-11 06:30N 71°12' E 027°38'1 1.4
2017-Nov-11 06:00N 71°11' E 027°36'0 1.0
2017-Nov-11 05:31N 71°11' E 027°34'1 2.2
2017-Nov-11 05:00N 71°11' E 027°31'0 0.5
2017-Nov-11 04:30N 71°11' E 027°30'4 8.6
2017-Nov-11 04:01N 71°08' E 027°22'4 8.3
2017-Nov-11 03:31N 71°04' E 027°15'4 8.0
2017-Nov-11 03:00N 71°01' E 027°11'4 7.5
2017-Nov-11 02:30N 70°58' E 027°18'1 0.1
2017-Nov-10 16:34N 70°57' E 027°20'0 0.0
2017-Nov-10 13:41N 70°57' E 027°20'1 6.0
2017-Nov-10 13:30N 70°58' E 027°18'4 8.2
2017-Nov-10 13:00N 71°01' E 027°11'4 7.1
2017-Nov-10 12:30N 71°04' E 027°15'1 2.2
2017-Nov-10 12:00N 71°04' E 027°12'3 6.4
2017-Nov-10 11:31N 71°07' E 027°16'0 1.0
2017-Nov-10 11:00N 71°07' E 027°16'4 7.1
2017-Nov-10 10:30N 71°09' E 027°25'3 5.9
2017-Nov-10 09:59N 71°11' E 027°32'3 6.9
2017-Nov-10 09:30N 71°12' E 027°42'1 1.3
2017-Nov-10 09:00N 71°12' E 027°40'1 1.1
2017-Nov-10 08:29N 71°12' E 027°39'1 2.7
2017-Nov-10 08:00N 71°11' E 027°35'0 0.6
2017-Nov-10 07:30N 71°11' E 027°34'2 3.7
2017-Nov-10 06:59N 71°11' E 027°40'3 6.5
2017-Nov-10 06:30N 71°11' E 027°50'1 1.8
2017-Nov-10 06:00N 71°12' E 027°51'0 1.0
2017-Nov-10 05:30N 71°12' E 027°51'1 1.3
2017-Nov-10 05:00N 71°12' E 027°49'1 1.7
2017-Nov-10 04:30N 71°12' E 027°46'0 0.7
2017-Nov-10 04:00N 71°12' E 027°47'1 1.9
2017-Nov-10 03:30N 71°12' E 027°44'1 1.8
2017-Nov-10 03:00N 71°11' E 027°46'0 0.8
2017-Nov-10 02:30N 71°11' E 027°45'3 5.3
2017-Nov-10 02:00N 71°14' E 027°42'1 2.9
2017-Nov-10 01:30N 71°15' E 027°41'0 0.9
2017-Nov-10 01:00N 71°15' E 027°42'0 0.9
2017-Nov-10 00:30N 71°14' E 027°43'0 0.8
2017-Nov-10 00:00N 71°14' E 027°43'0 0.9
2017-Nov-09 23:30N 71°14' E 027°44'0 1.0
2017-Nov-09 23:00N 71°13' E 027°45'0 0.8
2017-Nov-09 22:30N 71°13' E 027°46'0 0.8
2017-Nov-09 22:00N 71°13' E 027°47'0 0.7
2017-Nov-09 21:30N 71°13' E 027°48'0 0.7
2017-Nov-09 21:00N 71°12' E 027°48'0 0.6
2017-Nov-09 20:30N 71°12' E 027°49'0 0.4
2017-Nov-09 20:00N 71°12' E 027°49'1 1.6
2017-Nov-09 19:30N 71°12' E 027°46'1 2.1
2017-Nov-09 19:00N 71°12' E 027°43'1 1.6
2017-Nov-09 18:30N 71°12' E 027°41'2 3.9
2017-Nov-09 18:00N 71°11' E 027°46'1 2.0
2017-Nov-09 17:30N 71°12' E 027°46'3 5.9
2017-Nov-09 17:00N 71°11' E 027°55'2 4.7
2017-Nov-09 16:30N 71°12' E 028°01'3 6.3
2017-Nov-09 16:00N 71°10' E 028°07'3 6.3
2017-Nov-09 15:30N 71°09' E 028°16'3 6.0
2017-Nov-09 15:00N 71°07' E 028°24'3 6.2
2017-Nov-09 14:29N 71°06' E 028°32'1 1.8
2017-Nov-09 14:00N 71°05' E 028°35'0 0.6
2017-Nov-09 13:30N 71°05' E 028°35'1 1.2
2017-Nov-09 13:01N 71°05' E 028°33'1 1.5
2017-Nov-09 12:30N 71°06' E 028°32'1 1.6
2017-Nov-09 12:00N 71°06' E 028°30'1 1.1
2017-Nov-09 11:29N 71°07' E 028°30'4 7.6
2017-Nov-09 11:00N 71°08' E 028°19'3 6.8
2017-Nov-09 10:30N 71°10' E 028°09'4 8.0
2017-Nov-09 10:00N 71°10' E 027°57'4 8.2
2017-Nov-09 09:30N 71°11' E 027°44'4 7.4
2017-Nov-09 09:00N 71°12' E 027°33'4 8.2
2017-Nov-09 08:30N 71°09' E 027°22'4 7.9
2017-Nov-09 08:00N 71°06' E 027°13'1 1.9
2017-Nov-09 07:30N 71°06' E 027°16'3 5.5
2017-Nov-09 07:00N 71°08' E 027°23'0 0.6
2017-Nov-09 06:30N 71°08' E 027°22'1 1.7
2017-Nov-09 06:00N 71°07' E 027°20'1 2.1
2017-Nov-09 05:30N 71°07' E 027°17'1 1.6
2017-Nov-09 05:00N 71°06' E 027°16'3 6.4
2017-Nov-09 04:30N 71°03' E 027°13'3 5.8
2017-Nov-09 04:00N 70°60' E 027°12'3 6.4
2017-Nov-09 03:29N 70°57' E 027°18'1 0.1
2017-Nov-08 16:41N 70°57' E 027°20'0 0.0
2017-Nov-08 14:54N 70°57' E 027°20'3 6.8
2017-Nov-08 14:30N 70°59' E 027°15'5 7.1
2017-Nov-08 13:48N 71°04' E 027°11'2 6.5
2017-Nov-08 13:30N 71°05' E 027°15'1 0.7
2017-Nov-08 12:37N 71°06' E 027°16'1 6.4
2017-Nov-08 12:29N 71°06' E 027°18'0 0.3
2017-Nov-08 11:49N 71°06' E 027°19'4 5.9
2017-Nov-08 11:08N 71°03' E 027°11'0 0.5
2017-Nov-08 10:26N 71°03' E 027°10'3 2.0
2017-Nov-08 09:05N 71°05' E 027°14'0 2.8
2017-Nov-08 09:00N 71°05' E 027°13'1 1.4
2017-Nov-08 08:30N 71°05' E 027°13'1 3.0
2017-Nov-08 08:00N 71°06' E 027°16'1 1.1
2017-Nov-08 07:30N 71°05' E 027°15'4 7.3
2017-Nov-08 07:00N 71°08' E 027°22'0 0.2
2017-Nov-08 06:30N 71°08' E 027°22'0 0.6
2017-Nov-08 06:00N 71°08' E 027°21'1 2.4
2017-Nov-08 05:30N 71°07' E 027°19'0 0.5
2017-Nov-08 05:00N 71°07' E 027°18'3 5.3
2017-Nov-08 04:30N 71°04' E 027°13'4 7.8
2017-Nov-08 03:59N 71°01' E 027°11'4 7.9
2017-Nov-08 03:31N 70°58' E 027°18'1 1.3
2017-Nov-08 02:45N 70°57' E 027°20'0 0.0
2017-Nov-08 02:25N 70°57' E 027°20'0 0.0
2017-Nov-07 19:30N 70°57' E 027°20'0 0.0
2017-Nov-07 18:49N 70°57' E 027°20'0 0.0
2017-Nov-07 18:28N 70°57' E 027°20'0 0.0
2017-Nov-07 17:49N 70°57' E 027°20'0 0.0
2017-Nov-07 17:08N 70°57' E 027°20'0 0.0
2017-Nov-07 16:53N 70°57' E 027°20'0 0.0
2017-Nov-07 16:24N 70°57' E 027°20'0 0.0
2017-Nov-07 15:33N 70°57' E 027°20'0 0.0
2017-Nov-07 15:13N 70°57' E 027°20'0 0.0
2017-Nov-07 14:28N 70°57' E 027°20'0 0.0
2017-Nov-07 13:02N 70°57' E 027°20'0 0.0
2017-Nov-07 12:55N 70°57' E 027°20'0 0.0
2017-Nov-07 12:23N 70°57' E 027°20'0 0.0
2017-Nov-07 11:55N 70°57' E 027°20'0 0.0
2017-Nov-07 11:29N 70°57' E 027°20'0 0.0
2017-Nov-07 10:49N 70°57' E 027°20'0 0.0
2017-Nov-07 09:49N 70°57' E 027°20'  

Dump ship's entire track history